Burlington, Indiana
Current Conditions -  °F | °C
As of 9:55 AM on Saturday 20 Dec 2014 (Local Time) from KGGP Reporting Station
Haze Haze  
Wind Chill: 30°   Ceiling: 2700
Heat Index: 30°   Visibility: 3mi
Dew Point: 28°   Wind: 0mph
Humidity: 93%   Direction: NA
Pressure: 30.3"   Gusts: NA
Location:  40.48°N, 86.39°W
Report Text: KGGP 201455Z AUTO 00000KT 3SM BR OVC027 M01/M02 A3030 RMK AO2
Loading
Personal Weather Stations






























Interactive Weather Map New forecast layout! Learn more

10-Day Weather Forecast

Advertisements
Track Severe Weather on mobile